createdAt,value
2017-08-09T00:02:23.149Z,15.00
2017-08-09T00:04:50.723Z,11.25
2017-08-09T00:07:18.274Z,8.20
2017-08-09T00:09:45.878Z,9.88
2017-08-09T00:12:13.422Z,10.75
2017-08-09T00:14:41.004Z,15.95
2017-08-09T00:17:08.573Z,7.70
2017-08-09T00:19:36.896Z,10.15
2017-08-09T00:22:04.450Z,9.27
2017-08-09T00:24:32.025Z,9.82
2017-08-09T00:26:59.616Z,10.13
2017-08-09T00:29:27.168Z,12.60
2017-08-09T00:31:54.848Z,14.80
2017-08-09T00:34:23.151Z,16.27
2017-08-09T00:36:50.721Z,14.18
2017-08-09T00:39:18.300Z,15.90
2017-08-09T00:41:45.867Z,17.45
2017-08-09T00:44:13.378Z,18.25
2017-08-09T00:46:40.938Z,14.10
2017-08-09T00:49:08.453Z,19.75
2017-08-09T00:51:36.070Z,16.12
2017-08-09T00:54:03.690Z,18.33
2017-08-09T00:56:31.257Z,13.95
2017-08-09T00:58:59.554Z,14.00
2017-08-09T01:01:27.139Z,14.98
2017-08-09T01:03:54.671Z,13.50
2017-08-09T01:06:22.181Z,18.75
2017-08-09T01:08:49.783Z,14.48
2017-08-09T01:11:18.125Z,19.92
2017-08-09T01:13:45.653Z,15.45
2017-08-09T01:16:13.278Z,18.48
2017-08-09T01:18:40.834Z,19.67
2017-08-09T01:21:09.105Z,20.98
2017-08-09T01:23:36.720Z,27.67
2017-08-09T01:26:04.245Z,20.48
2017-08-09T01:28:31.756Z,23.85
2017-08-09T01:30:59.382Z,21.83
2017-08-09T01:33:26.938Z,23.55
2017-08-09T01:35:54.519Z,25.98
2017-08-09T01:38:22.075Z,25.95
2017-08-09T01:40:49.592Z,25.25
2017-08-09T01:43:17.158Z,26.08
2017-08-09T01:45:44.901Z,27.00
2017-08-09T01:48:12.441Z,23.33
2017-08-09T01:50:39.989Z,34.25
2017-08-09T01:53:07.522Z,41.47
2017-08-09T01:55:35.080Z,24.25
2017-08-09T01:58:02.582Z,25.52
2017-08-09T02:00:30.191Z,26.25
2017-08-09T02:02:57.754Z,31.95
2017-08-09T02:05:25.322Z,25.70
2017-08-09T02:07:53.075Z,25.83
2017-08-09T02:10:20.539Z,26.45
2017-08-09T02:12:48.090Z,31.10
2017-08-09T02:15:15.653Z,28.62
2017-08-09T02:17:43.163Z,30.85
2017-08-09T02:20:10.724Z,34.95
2017-08-09T02:22:38.310Z,28.80
2017-08-09T02:25:05.846Z,42.40
2017-08-09T02:27:33.338Z,28.05
2017-08-09T02:30:00.960Z,25.73
2017-08-09T02:32:28.551Z,21.10
2017-08-09T02:34:56.856Z,28.12
2017-08-09T02:37:24.470Z,26.15
2017-08-09T02:39:51.959Z,24.27
2017-08-09T02:42:19.557Z,22.10
2017-08-09T02:44:47.150Z,25.58
2017-08-09T02:47:14.668Z,24.40
2017-08-09T02:49:42.202Z,24.30
2017-08-09T02:52:09.726Z,32.40
2017-08-09T02:54:38.037Z,27.37
2017-08-09T02:57:05.616Z,28.20
2017-08-09T02:59:33.205Z,28.70
2017-08-09T03:02:00.753Z,35.13
2017-08-09T03:04:28.294Z,28.23
2017-08-09T03:06:55.985Z,27.05
2017-08-09T03:09:23.534Z,22.10
2017-08-09T03:11:51.124Z,20.45
2017-08-09T03:14:18.718Z,23.70
2017-08-09T03:16:47.033Z,21.12
2017-08-09T03:19:14.631Z,25.95
2017-08-09T03:21:42.391Z,23.27
2017-08-09T03:24:09.939Z,29.85
2017-08-09T03:26:37.478Z,21.73
2017-08-09T03:29:05.071Z,18.98
2017-08-09T03:31:32.604Z,23.75
2017-08-09T03:34:00.180Z,24.33
2017-08-09T03:36:27.908Z,22.67
2017-08-09T03:38:55.434Z,22.75
2017-08-09T03:41:23.722Z,25.60
2017-08-09T03:43:51.376Z,19.52
2017-08-09T03:46:18.881Z,26.00
2017-08-09T03:48:46.469Z,19.73
2017-08-09T03:51:14.123Z,18.83
2017-08-09T03:53:41.667Z,22.37
2017-08-09T03:56:09.196Z,24.73
2017-08-09T03:58:36.748Z,24.00
2017-08-09T04:01:04.279Z,22.10
2017-08-09T04:03:31.862Z,18.87
2017-08-09T04:06:00.174Z,16.98
2017-08-09T04:08:27.751Z,16.58
2017-08-09T04:10:55.339Z,16.70
2017-08-09T04:13:22.909Z,27.20
2017-08-09T04:15:51.210Z,21.25
2017-08-09T04:18:18.770Z,21.23
2017-08-09T04:20:46.326Z,20.75
2017-08-09T04:23:13.886Z,27.83
2017-08-09T04:25:41.439Z,21.15
2017-08-09T04:28:09.745Z,19.90
2017-08-09T04:30:37.260Z,21.08
2017-08-09T04:33:05.126Z,20.50
2017-08-09T04:35:32.745Z,21.52
2017-08-09T04:38:00.285Z,23.70
2017-08-09T04:40:27.886Z,16.27
2017-08-09T04:42:55.506Z,14.25
2017-08-09T04:45:23.043Z,14.20
2017-08-09T04:47:50.644Z,15.03
2017-08-09T04:50:18.245Z,14.73
2017-08-09T04:52:45.761Z,13.03
2017-08-09T04:55:13.349Z,13.13
2017-08-09T04:57:40.909Z,9.47
2017-08-09T05:00:08.446Z,13.30
2017-08-09T05:02:35.969Z,9.90
2017-08-09T05:05:03.577Z,12.43
2017-08-09T05:07:31.113Z,9.17
2017-08-09T05:09:58.617Z,9.60
2017-08-09T05:12:26.213Z,9.83
2017-08-09T05:14:53.756Z,8.50
2017-08-09T05:17:21.333Z,8.93
2017-08-09T05:19:48.891Z,8.70
2017-08-09T05:22:16.456Z,8.87
2017-08-09T05:24:43.999Z,10.70
2017-08-09T05:27:11.595Z,13.13
2017-08-09T05:29:39.138Z,8.00
2017-08-09T05:32:06.661Z,8.87
2017-08-09T05:34:34.523Z,6.83
2017-08-09T05:37:02.866Z,7.40
2017-08-09T05:39:30.397Z,8.80
2017-08-09T05:41:58.086Z,7.20
2017-08-09T05:44:25.611Z,14.50
2017-08-09T05:46:53.166Z,10.93
2017-08-09T05:49:20.728Z,9.83
2017-08-09T05:51:48.301Z,7.70
2017-08-09T05:54:15.849Z,8.53
2017-08-09T05:56:43.401Z,11.20
2017-08-09T05:59:10.923Z,11.30
2017-08-09T06:01:39.232Z,15.30
2017-08-09T06:04:06.763Z,11.07
2017-08-09T06:06:35.107Z,9.27
2017-08-09T06:09:02.651Z,6.82
2017-08-09T06:11:30.270Z,10.55
2017-08-09T06:13:57.815Z,7.53
2017-08-09T06:16:26.151Z,6.33
2017-08-09T06:18:53.749Z,5.40
2017-08-09T06:21:21.301Z,7.53
2017-08-09T06:23:48.834Z,13.50
2017-08-09T06:26:16.451Z,5.37
2017-08-09T06:28:43.962Z,4.20
2017-08-09T06:31:11.577Z,6.53
2017-08-09T06:33:39.192Z,6.20
2017-08-09T06:36:06.775Z,13.32
2017-08-09T06:38:34.327Z,4.00
2017-08-09T06:41:01.939Z,4.50
2017-08-09T06:43:29.518Z,5.47
2017-08-09T06:45:57.037Z,7.22
2017-08-09T06:48:24.569Z,7.55
2017-08-09T06:50:52.113Z,48.35
2017-08-09T06:53:19.641Z,5.22
2017-08-09T06:55:47.402Z,5.10
2017-08-09T06:58:14.958Z,5.87
2017-08-09T07:00:42.473Z,9.18
2017-08-09T07:03:10.226Z,11.75
2017-08-09T07:05:37.717Z,3.65
2017-08-09T07:08:05.289Z,5.18
2017-08-09T07:10:33.586Z,4.55
2017-08-09T07:13:01.111Z,3.72
2017-08-09T07:15:29.415Z,3.37
2017-08-09T07:17:57.091Z,4.03
2017-08-09T07:20:24.658Z,4.35
2017-08-09T07:22:52.201Z,7.50
2017-08-09T07:25:19.760Z,8.00
2017-08-09T07:27:47.263Z,3.80
2017-08-09T07:30:14.818Z,5.62
2017-08-09T07:32:42.452Z,4.87
2017-08-09T07:35:10.003Z,5.90
2017-08-09T07:37:37.533Z,3.70
2017-08-09T07:40:05.109Z,4.67
2017-08-09T07:42:32.643Z,4.20
2017-08-09T07:45:00.245Z,4.20
2017-08-09T07:47:27.834Z,2.57
2017-08-09T07:49:55.390Z,6.03
2017-08-09T07:52:22.887Z,3.73
2017-08-09T07:54:51.269Z,4.90
2017-08-09T07:57:18.815Z,2.53
2017-08-09T07:59:46.337Z,4.87
2017-08-09T08:02:14.003Z,3.30
2017-08-09T08:04:41.532Z,4.43
2017-08-09T08:07:09.034Z,3.20
2017-08-09T08:09:36.626Z,3.23
2017-08-09T08:12:04.940Z,3.23
2017-08-09T08:14:32.479Z,9.70
2017-08-09T08:17:01.013Z,3.50
2017-08-09T08:19:28.529Z,4.57
2017-08-09T08:21:56.050Z,2.97
2017-08-09T08:24:29.088Z,3.70
2017-08-09T08:26:56.584Z,3.67
2017-08-09T08:29:24.131Z,2.77
2017-08-09T08:31:51.701Z,3.43
2017-08-09T08:34:19.234Z,2.67
2017-08-09T08:36:46.755Z,3.67
2017-08-09T08:39:14.467Z,3.10
2017-08-09T08:41:42.030Z,1.97
2017-08-09T08:44:09.530Z,2.40
2017-08-09T08:46:37.278Z,5.87
2017-08-09T08:49:04.829Z,4.17
2017-08-09T08:51:32.310Z,6.60
2017-08-09T08:53:59.858Z,2.57
2017-08-09T08:56:27.373Z,3.33
2017-08-09T08:58:54.924Z,2.87
2017-08-09T09:01:22.498Z,4.13
2017-08-09T09:03:50.048Z,7.53
2017-08-09T09:06:17.574Z,2.23
2017-08-09T09:08:45.308Z,2.37
2017-08-09T09:11:12.807Z,3.53
2017-08-09T09:13:40.315Z,6.57
2017-08-09T09:16:08.041Z,3.07
2017-08-09T09:18:35.593Z,1.97
2017-08-09T09:21:04.014Z,5.47
2017-08-09T09:23:31.628Z,2.90
2017-08-09T09:25:59.142Z,2.90
2017-08-09T09:28:26.674Z,4.03
2017-08-09T09:30:54.274Z,3.40
2017-08-09T09:33:21.805Z,3.23
2017-08-09T09:35:49.330Z,3.93
2017-08-09T09:38:17.264Z,3.50
2017-08-09T09:40:44.803Z,5.80
2017-08-09T09:43:12.356Z,6.03
2017-08-09T09:45:39.939Z,2.90
2017-08-09T09:48:07.452Z,7.23
2017-08-09T09:50:34.953Z,2.80
2017-08-09T09:53:02.678Z,2.50
2017-08-09T09:55:30.218Z,6.23
2017-08-09T09:57:58.566Z,2.70
2017-08-09T10:00:26.147Z,2.80
2017-08-09T10:02:53.627Z,6.03
2017-08-09T10:05:21.184Z,7.33
2017-08-09T10:07:48.734Z,2.70
2017-08-09T10:10:16.304Z,5.57
2017-08-09T10:12:43.813Z,2.40
2017-08-09T10:15:11.351Z,2.93
2017-08-09T10:17:38.887Z,2.10
2017-08-09T10:20:06.408Z,3.43
2017-08-09T10:22:34.123Z,4.10
2017-08-09T10:25:01.659Z,1.97
2017-08-09T10:27:29.216Z,3.47
2017-08-09T10:29:56.824Z,2.23
2017-08-09T10:32:24.367Z,3.00
2017-08-09T10:34:51.919Z,2.23
2017-08-09T10:37:19.445Z,1.80
2017-08-09T10:39:47.027Z,2.90
2017-08-09T10:42:14.574Z,2.10
2017-08-09T10:44:42.293Z,1.70
2017-08-09T10:47:09.870Z,2.20
2017-08-09T10:49:37.377Z,2.97
2017-08-09T10:52:05.110Z,2.90
2017-08-09T10:54:33.421Z,3.20
2017-08-09T10:57:00.948Z,3.40
2017-08-09T10:59:29.274Z,3.67
2017-08-09T11:01:56.827Z,4.80
2017-08-09T11:04:24.425Z,3.33
2017-08-09T11:06:51.925Z,3.23
2017-08-09T11:09:19.482Z,3.87
2017-08-09T11:11:47.014Z,6.57
2017-08-09T11:14:15.432Z,7.23
2017-08-09T11:16:42.922Z,3.40
2017-08-09T11:19:10.472Z,3.27
2017-08-09T11:21:38.036Z,3.70
2017-08-09T11:24:05.581Z,3.40
2017-08-09T11:26:33.112Z,3.00
2017-08-09T11:29:00.650Z,3.47
2017-08-09T11:31:29.420Z,3.80
2017-08-09T11:33:56.992Z,3.43
2017-08-09T11:36:24.662Z,3.27
2017-08-09T11:38:52.224Z,3.30
2017-08-09T11:41:19.744Z,3.03
2017-08-09T11:43:47.314Z,3.20
2017-08-09T11:46:14.870Z,3.77
2017-08-09T11:48:42.487Z,3.60
2017-08-09T11:51:10.063Z,4.57
2017-08-09T11:53:37.652Z,8.60
2017-08-09T11:56:05.182Z,3.40
2017-08-09T11:58:32.756Z,4.07
2017-08-09T12:01:00.295Z,3.43
2017-08-09T12:03:27.825Z,3.07
2017-08-09T12:05:56.179Z,7.93
2017-08-09T12:08:23.726Z,4.53
2017-08-09T12:10:51.214Z,3.30
2017-08-09T12:13:18.810Z,5.30
2017-08-09T12:15:46.320Z,2.90
2017-08-09T12:18:14.611Z,8.60
2017-08-09T12:20:42.183Z,2.80
2017-08-09T12:23:11.013Z,3.90
2017-08-09T12:25:38.562Z,11.07
2017-08-09T12:28:06.297Z,12.20
2017-08-09T12:30:33.915Z,5.27
2017-08-09T12:33:01.474Z,3.83
2017-08-09T12:35:29.098Z,3.37
2017-08-09T12:37:56.621Z,4.17
2017-08-09T12:40:24.188Z,5.50
2017-08-09T12:42:51.743Z,3.70
2017-08-09T12:45:20.078Z,3.93
2017-08-09T12:47:47.621Z,4.43
2017-08-09T12:50:15.178Z,3.23
2017-08-09T12:52:42.761Z,2.80
2017-08-09T12:55:10.350Z,9.37
2017-08-09T12:57:38.032Z,5.10
2017-08-09T13:00:05.584Z,4.43
2017-08-09T13:02:33.197Z,3.93
2017-08-09T13:05:00.875Z,3.67
2017-08-09T13:07:28.463Z,5.47
2017-08-09T13:09:56.838Z,4.37
2017-08-09T13:12:24.468Z,5.23
2017-08-09T13:14:52.041Z,5.90
2017-08-09T13:17:19.627Z,4.17
2017-08-09T13:19:47.212Z,4.13
2017-08-09T13:22:14.782Z,4.00
2017-08-09T13:24:42.335Z,4.27
2017-08-09T13:27:10.134Z,4.20
2017-08-09T13:29:37.690Z,3.83
2017-08-09T13:32:05.232Z,3.73
2017-08-09T13:34:32.994Z,4.13
2017-08-09T13:37:00.509Z,3.87
2017-08-09T13:39:28.147Z,4.10
2017-08-09T13:41:55.746Z,4.60
2017-08-09T13:44:23.314Z,4.17
2017-08-09T13:46:50.874Z,4.37
2017-08-09T13:49:18.446Z,5.90
2017-08-09T13:51:46.050Z,2.87
2017-08-09T13:54:13.593Z,3.47
2017-08-09T13:56:41.418Z,3.70
2017-08-09T13:59:08.984Z,22.73
2017-08-09T14:01:36.540Z,2.97
2017-08-09T14:04:04.113Z,3.40
2017-08-09T14:06:31.699Z,5.60
2017-08-09T14:08:59.304Z,3.50
2017-08-09T14:11:26.906Z,3.40
2017-08-09T14:13:54.486Z,4.23
2017-08-09T14:16:22.064Z,2.80
2017-08-09T14:18:49.803Z,2.10
2017-08-09T14:21:17.385Z,2.20
2017-08-09T14:23:44.889Z,2.50
2017-08-09T14:26:12.497Z,2.27
2017-08-09T14:28:40.071Z,2.93
2017-08-09T14:31:07.586Z,7.40
2017-08-09T14:33:35.297Z,3.00
2017-08-09T14:36:03.588Z,2.03
2017-08-09T14:38:31.905Z,2.00
2017-08-09T14:40:59.495Z,2.47
2017-08-09T14:43:27.015Z,2.10
2017-08-09T14:45:54.601Z,2.20
2017-08-09T14:48:22.317Z,2.00
2017-08-09T14:50:49.824Z,2.40
2017-08-09T14:53:17.347Z,2.00
2017-08-09T14:55:44.932Z,2.07
2017-08-09T14:58:12.520Z,2.10
2017-08-09T15:00:40.126Z,2.27
2017-08-09T15:03:07.728Z,8.23
2017-08-09T15:05:35.252Z,1.93
2017-08-09T15:08:02.791Z,3.47
2017-08-09T15:10:31.119Z,2.13
2017-08-09T15:12:58.628Z,1.97
2017-08-09T15:15:26.193Z,2.80
2017-08-09T15:17:53.904Z,1.67
2017-08-09T15:20:21.467Z,1.97
2017-08-09T15:22:49.019Z,5.63
2017-08-09T15:25:16.620Z,19.43
2017-08-09T15:27:44.225Z,3.20
2017-08-09T15:30:11.746Z,1.60
2017-08-09T15:32:40.146Z,1.97
2017-08-09T15:35:07.683Z,3.93
2017-08-09T15:37:35.231Z,2.93
2017-08-09T15:40:03.016Z,6.03
2017-08-09T15:42:30.599Z,1.77
2017-08-09T15:44:58.150Z,1.67
2017-08-09T15:47:25.735Z,2.20
2017-08-09T15:49:54.223Z,3.10
2017-08-09T15:52:21.827Z,1.70
2017-08-09T15:54:49.429Z,3.73
2017-08-09T15:57:16.992Z,5.67
2017-08-09T15:59:44.572Z,1.70
2017-08-09T16:02:12.315Z,7.23
2017-08-09T16:04:39.862Z,1.60
2017-08-09T16:07:07.414Z,2.83
2017-08-09T16:09:34.985Z,1.70
2017-08-09T16:12:02.548Z,7.23
2017-08-09T16:14:30.070Z,3.10
2017-08-09T16:16:57.687Z,7.10
2017-08-09T16:19:25.228Z,1.83
2017-08-09T16:21:52.796Z,1.63
2017-08-09T16:24:20.407Z,3.37
2017-08-09T16:26:48.745Z,3.97
2017-08-09T16:29:16.473Z,1.67
2017-08-09T16:31:44.087Z,5.90
2017-08-09T16:34:11.707Z,1.97
2017-08-09T16:36:39.459Z,2.03
2017-08-09T16:39:07.098Z,2.20
2017-08-09T16:41:34.750Z,1.70
2017-08-09T16:44:03.071Z,3.10
2017-08-09T16:46:31.059Z,2.60
2017-08-09T16:48:58.586Z,1.90
2017-08-09T16:51:26.169Z,3.77
2017-08-09T16:53:53.900Z,2.83
2017-08-09T16:56:23.193Z,3.80
2017-08-09T16:58:50.797Z,2.80
2017-08-09T17:01:18.387Z,2.63
2017-08-09T17:03:46.028Z,3.70
2017-08-09T17:06:13.672Z,9.37
2017-08-09T17:08:41.387Z,2.20
2017-08-09T17:11:09.723Z,11.13
2017-08-09T17:13:37.351Z,2.67
2017-08-09T17:16:05.494Z,2.43
2017-08-09T17:18:33.034Z,3.73
2017-08-09T17:21:00.620Z,2.10
2017-08-09T17:23:28.862Z,3.63
2017-08-09T17:25:56.639Z,3.67
2017-08-09T17:28:24.576Z,2.53
2017-08-09T17:30:52.182Z,3.13
2017-08-09T17:33:19.888Z,2.70
2017-08-09T17:35:47.567Z,3.20
2017-08-09T17:38:16.111Z,3.70
2017-08-09T17:40:45.043Z,6.33
2017-08-09T17:43:12.696Z,3.17
2017-08-09T17:45:40.325Z,9.20
2017-08-09T17:48:08.727Z,4.75
2017-08-09T17:50:36.376Z,7.60
2017-08-09T17:53:04.336Z,2.80
2017-08-09T17:55:32.827Z,7.47
2017-08-09T17:58:00.402Z,3.10
2017-08-09T18:00:28.523Z,5.10
2017-08-09T18:02:56.140Z,5.53
2017-08-09T18:05:24.484Z,6.40
2017-08-09T18:07:53.006Z,4.53
2017-08-09T18:10:20.602Z,3.30
2017-08-09T18:12:49.160Z,3.47
2017-08-09T18:15:19.496Z,3.87
2017-08-09T18:17:47.298Z,11.43
2017-08-09T18:20:15.079Z,7.25
2017-08-09T18:22:43.459Z,11.20
2017-08-09T18:25:11.055Z,5.65
2017-08-09T18:27:38.647Z,3.10
2017-08-09T18:30:06.301Z,9.13
2017-08-09T18:32:33.886Z,7.32
2017-08-09T18:35:03.057Z,4.25
2017-08-09T18:37:31.162Z,4.30
2017-08-09T18:39:58.771Z,5.75
2017-08-09T18:42:27.104Z,5.00
2017-08-09T18:44:55.865Z,3.65
2017-08-09T18:47:23.479Z,3.85
2017-08-09T18:49:51.096Z,10.68
2017-08-09T18:52:20.281Z,3.37
2017-08-09T18:54:47.890Z,4.95
2017-08-09T18:57:16.551Z,5.53
2017-08-09T18:59:49.315Z,3.67
2017-08-09T19:02:16.927Z,4.62
2017-08-09T19:04:44.524Z,4.75
2017-08-09T19:07:12.383Z,4.95
2017-08-09T19:09:40.033Z,4.75
2017-08-09T19:12:07.609Z,4.90
2017-08-09T19:14:37.170Z,6.80
2017-08-09T19:17:06.386Z,7.15
2017-08-09T19:19:34.027Z,7.45
2017-08-09T19:22:04.424Z,5.15
2017-08-09T19:24:32.939Z,22.80
2017-08-09T19:27:02.038Z,4.80
2017-08-09T19:29:29.893Z,4.95
2017-08-09T19:31:58.570Z,7.32
2017-08-09T19:34:26.186Z,6.78
2017-08-09T19:36:53.844Z,11.23
2017-08-09T19:39:21.445Z,6.60
2017-08-09T19:41:49.948Z,11.88
2017-08-09T19:44:17.616Z,12.45
2017-08-09T19:46:46.299Z,5.22
2017-08-09T19:49:13.908Z,6.20
2017-08-09T19:51:41.543Z,9.13
2017-08-09T19:54:09.117Z,6.43
2017-08-09T19:56:36.691Z,5.50
2017-08-09T19:59:05.183Z,14.80
2017-08-09T20:01:32.766Z,7.40
2017-08-09T20:04:00.275Z,21.10
2017-08-09T20:06:28.469Z,9.13
2017-08-09T20:08:56.061Z,5.07
2017-08-09T20:11:23.675Z,6.95
2017-08-09T20:13:51.307Z,4.90
2017-08-09T20:16:18.855Z,8.10
2017-08-09T20:18:47.371Z,10.40
2017-08-09T20:21:15.022Z,6.35
2017-08-09T20:23:42.599Z,4.37
2017-08-09T20:26:10.165Z,6.32
2017-08-09T20:28:37.911Z,5.07
2017-08-09T20:31:05.503Z,10.40
2017-08-09T20:33:33.040Z,5.28
2017-08-09T20:36:00.634Z,5.07
2017-08-09T20:38:29.204Z,10.63
2017-08-09T20:40:58.499Z,6.85
2017-08-09T20:43:27.143Z,5.15
2017-08-09T20:45:54.698Z,8.77
2017-08-09T20:48:22.355Z,7.65
2017-08-09T20:50:52.532Z,7.10
2017-08-09T20:53:20.171Z,5.35
2017-08-09T20:55:47.730Z,4.93
2017-08-09T20:58:15.337Z,24.67
2017-08-09T21:00:42.891Z,6.25
2017-08-09T21:03:10.438Z,15.85
2017-08-09T21:05:38.042Z,7.32
2017-08-09T21:08:05.612Z,4.72
2017-08-09T21:10:33.939Z,7.80
2017-08-09T21:13:01.557Z,5.05
2017-08-09T21:15:29.111Z,7.95
2017-08-09T21:17:56.676Z,10.90
2017-08-09T21:20:25.002Z,9.07
2017-08-09T21:22:52.669Z,6.85
2017-08-09T21:25:20.200Z,5.03
2017-08-09T21:27:47.860Z,18.87
2017-08-09T21:30:15.453Z,5.00
2017-08-09T21:32:43.010Z,9.32
2017-08-09T21:35:10.550Z,7.85
2017-08-09T21:37:38.143Z,14.75
2017-08-09T21:40:05.836Z,5.40
2017-08-09T21:42:33.402Z,11.30
2017-08-09T21:45:01.083Z,8.55
2017-08-09T21:47:28.637Z,7.28
2017-08-09T21:49:56.212Z,7.70
2017-08-09T21:52:23.762Z,5.78
2017-08-09T21:54:51.315Z,6.55
2017-08-09T21:57:19.739Z,16.48
2017-08-09T21:59:47.322Z,6.82
2017-08-09T22:02:14.885Z,11.27
2017-08-09T22:04:43.326Z,6.53
2017-08-09T22:07:10.950Z,17.73
2017-08-09T22:09:38.527Z,8.65
2017-08-09T22:12:06.072Z,8.70
2017-08-09T22:14:33.738Z,8.95
2017-08-09T22:17:01.297Z,12.40
2017-08-09T22:19:28.942Z,8.35
2017-08-09T22:24:50.018Z,7.82
2017-08-09T22:27:17.708Z,9.38
2017-08-09T22:29:47.208Z,13.18
2017-08-09T22:32:16.808Z,8.00
2017-08-09T22:35:01.885Z,9.93
2017-08-09T22:37:30.077Z,11.98
2017-08-09T22:40:08.662Z,14.87
2017-08-09T22:42:36.449Z,11.80
2017-08-09T22:45:11.428Z,12.15
2017-08-09T23:07:44.448Z,57.20
2017-08-09T23:10:12.100Z,50.30
2017-08-09T23:12:39.763Z,44.13
2017-08-09T23:15:07.449Z,42.15
2017-08-09T23:17:35.107Z,48.75
2017-08-09T23:20:02.762Z,44.55
2017-08-09T23:22:30.434Z,34.85
2017-08-09T23:25:05.856Z,29.55
2017-08-09T23:27:33.516Z,26.58
2017-08-09T23:30:01.145Z,25.95
2017-08-09T23:32:28.803Z,28.58
2017-08-09T23:37:33.094Z,36.15
2017-08-09T23:40:00.766Z,36.47
2017-08-09T23:42:47.864Z,38.67
2017-08-09T23:45:20.942Z,34.20
2017-08-09T23:47:52.479Z,35.20
2017-08-09T23:50:20.127Z,36.17
2017-08-09T23:52:47.927Z,38.08
2017-08-09T23:55:18.118Z,49.83
2017-08-09T23:57:45.872Z,58.60
